Star Flyer — 9HA2512 — position and weather

sailwx.info

Track history (hours):
 
Tides and Currents Weather Stations Pressure Air Temp Water Temp Dewpoint Dewpoint Depression Visibility Wind Speed Wind Dir Waves Ship Positions

Star Flyer

Last reported at 2018-Aug-12 22:47 UTC. Time now 2018-Aug-14 07:05 UTC.
Position N 37°17' E 025°53'.

Length 112 m; draft 5.9 m.

Type: Ship. MMSI: 248785000.

Date/timePositionNaut miles runAvg speedWind from/ knotsBaromVisibWave heightAir tempDewpointWater temp
2018-Aug-12 22:47N 37°17' E 025°53'2 6.5
2018-Aug-12 22:30N 37°16' E 025°51'3 6.6
2018-Aug-12 22:01N 37°16' E 025°46'2 4.1
2018-Aug-12 21:30N 37°15' E 025°44'2 3.5
2018-Aug-12 21:01N 37°15' E 025°42'5 4.5
2018-Aug-12 19:51N 37°15' E 025°35'2 5.3
2018-Aug-12 19:29N 37°15' E 025°33'3 5.4
2018-Aug-12 19:01N 37°14' E 025°30'2 4.9
2018-Aug-12 18:31N 37°14' E 025°27'2 4.9
2018-Aug-12 18:00N 37°13' E 025°24'2 3.4
2018-Aug-12 17:30N 37°13' E 025°22'2 4.0
2018-Aug-12 17:00N 37°12' E 025°19'2 4.6
2018-Aug-12 16:30N 37°13' E 025°16'2 4.7
2018-Aug-12 16:00N 37°12' E 025°14'2 3.1
2018-Aug-12 15:30N 37°11' E 025°12'3 5.4
2018-Aug-12 14:55N 37°09' E 025°09'2 4.3
2018-Aug-12 14:30N 37°08' E 025°07'3 4.8
2018-Aug-12 13:58N 37°06' E 025°07'1 1.0
2018-Aug-12 13:03N 37°05' E 025°08'0 0.0
2018-Aug-12 12:49N 37°05' E 025°08'0 0.0
2018-Aug-12 12:10N 37°05' E 025°08'0 0.1
2018-Aug-12 11:57N 37°05' E 025°08'0 0.0
2018-Aug-12 10:09N 37°05' E 025°08'0 0.0
2018-Aug-12 09:51N 37°05' E 025°08'0 0.0
2018-Aug-12 09:26N 37°05' E 025°08'0 0.0
2018-Aug-12 08:38N 37°05' E 025°08'0 0.0
2018-Aug-12 07:52N 37°05' E 025°08'0 0.1
2018-Aug-12 07:10N 37°05' E 025°08'0 1.6
2018-Aug-12 07:00N 37°05' E 025°08'3 6.7
2018-Aug-12 06:30N 37°07' E 025°05'3 5.4
2018-Aug-12 06:00N 37°07' E 025°02'2 4.6
2018-Aug-12 05:29N 37°06' E 024°59'3 7.1
2018-Aug-12 05:00N 37°08' E 024°56'3 6.1
2018-Aug-12 04:30N 37°10' E 024°53'62 6.7
2018-Aug-11 19:14N 37°39' E 023°44'2 5.3
2018-Aug-11 18:49N 37°41' E 023°42'2 7.8
2018-Aug-11 18:30N 37°43' E 023°41'4 8.8
2018-Aug-11 18:00N 37°47' E 023°38'4 8.5
2018-Aug-11 17:30N 37°51' E 023°36'5 9.5
2018-Aug-11 17:00N 37°56' E 023°36'1 2.6
2018-Aug-11 16:27N 37°56' E 023°38'0 0.0
2018-Aug-11 15:58N 37°56' E 023°38'0 0.0
2018-Aug-11 15:27N 37°56' E 023°38'0 0.0
2018-Aug-11 14:57N 37°56' E 023°38'0 0.0
2018-Aug-11 14:27N 37°56' E 023°38'0 0.0
2018-Aug-11 13:58N 37°56' E 023°38'0 0.0
2018-Aug-11 13:28N 37°56' E 023°38'0 0.0
2018-Aug-11 12:59N 37°56' E 023°38'0 0.0
2018-Aug-11 12:29N 37°56' E 023°38'0 0.0
2018-Aug-11 11:59N 37°56' E 023°38'0 0.0
2018-Aug-11 11:28N 37°56' E 023°38'0 0.0
2018-Aug-11 10:58N 37°56' E 023°38'0 0.0
2018-Aug-11 10:28N 37°56' E 023°38'0 0.0
2018-Aug-11 09:59N 37°56' E 023°38'0 0.0
2018-Aug-11 09:28N 37°56' E 023°38'0 0.0
2018-Aug-11 08:59N 37°56' E 023°38'0 0.0
2018-Aug-11 08:29N 37°56' E 023°38'0 0.0
2018-Aug-11 07:58N 37°56' E 023°38'0 0.0
2018-Aug-11 07:29N 37°56' E 023°38'0 0.0
2018-Aug-11 06:58N 37°56' E 023°38'0 0.0
2018-Aug-11 06:28N 37°56' E 023°38'0 0.0
2018-Aug-11 05:58N 37°56' E 023°38'0 0.0
2018-Aug-11 05:28N 37°56' E 023°38'0 0.0
2018-Aug-11 04:58N 37°56' E 023°38'0 0.0
2018-Aug-11 04:25N 37°56' E 023°38'0 0.0
2018-Aug-11 03:59N 37°56' E 023°38'0 0.4
2018-Aug-11 03:30N 37°56' E 023°38'2 3.8
2018-Aug-11 03:00N 37°55' E 023°37'3 6.6
2018-Aug-11 02:30N 37°52' E 023°39'3 6.2
2018-Aug-11 02:01N 37°49' E 023°40'3 5.9
2018-Aug-11 01:30N 37°46' E 023°42'25 6.2
2018-Aug-10 21:27N 37°21' E 023°37'54 2.3
2018-Aug-09 21:37N 37°19' E 024°45'1 7.2
2018-Aug-09 21:30N 37°19' E 024°46'4 7.8
2018-Aug-09 21:01N 37°20' E 024°51'611.2
2018-Aug-09 20:30N 37°22' E 024°58'4 8.6
2018-Aug-09 20:00N 37°26' E 024°60'3 5.3
2018-Aug-09 19:30N 37°26' E 024°57'0 0.0
2018-Aug-09 18:42N 37°26' E 024°57'0 0.0
2018-Aug-09 18:24N 37°26' E 024°57'0 0.0
2018-Aug-09 18:00N 37°26' E 024°57'0 0.0
2018-Aug-09 17:18N 37°26' E 024°57'0 0.0
2018-Aug-09 16:54N 37°26' E 024°57'0 0.0
2018-Aug-09 15:11N 37°26' E 024°57'0 0.0
2018-Aug-09 14:35N 37°26' E 024°57'0 0.0
2018-Aug-09 14:30N 37°26' E 024°57'0 0.0
2018-Aug-09 13:18N 37°26' E 024°57'0 0.0
2018-Aug-09 12:53N 37°26' E 024°57'0 0.0
2018-Aug-09 12:30N 37°26' E 024°57'0 0.0
2018-Aug-09 11:48N 37°26' E 024°57'0 0.0
2018-Aug-09 11:24N 37°26' E 024°57'0 0.0
2018-Aug-09 10:36N 37°26' E 024°57'0 0.0
2018-Aug-09 09:36N 37°26' E 024°57'0 0.0
2018-Aug-09 09:12N 37°26' E 024°57'0 0.0
2018-Aug-09 09:00N 37°26' E 024°57'0 0.0
2018-Aug-09 08:06N 37°26' E 024°57'0 0.0
2018-Aug-09 08:00N 37°26' E 024°57'0 0.0
2018-Aug-09 05:51N 37°26' E 024°57'0 0.9
2018-Aug-09 05:29N 37°26' E 024°57'2 4.3
2018-Aug-09 04:59N 37°26' E 024°60'5 4.3
2018-Aug-09 03:42N 37°23' E 025°05'1 3.7
2018-Aug-09 03:29N 37°23' E 025°06'2 4.1
2018-Aug-09 02:59N 37°21' E 025°08'2 4.1
2018-Aug-09 02:30N 37°20' E 025°09'2 4.4
2018-Aug-09 02:00N 37°18' E 025°11'2 4.2
2018-Aug-09 01:30N 37°16' E 025°13'2 4.5
2018-Aug-09 01:00N 37°15' E 025°15'2 4.4
2018-Aug-09 00:30N 37°13' E 025°16'3 5.5
2018-Aug-09 00:00N 37°11' E 025°19'3 5.3
2018-Aug-08 23:30N 37°08' E 025°19'3 5.9
2018-Aug-08 23:00N 37°05' E 025°18'3 5.7
2018-Aug-08 22:30N 37°03' E 025°18'3 5.7
2018-Aug-08 22:00N 36°60' E 025°19'  
2018-Aug-05 15:15N 37°40' E 025°50'4 5.7
2018-Aug-05 14:31N 37°38' E 025°45'0 6.7
2018-Aug-05 14:27N 37°38' E 025°45'6 6.2
2018-Aug-05 13:31N 37°36' E 025°38'3 6.5
2018-Aug-05 12:59N 37°35' E 025°34'3 6.5
2018-Aug-05 12:31N 37°35' E 025°30'3 6.5
2018-Aug-05 12:00N 37°34' E 025°26'4 7.3
2018-Aug-05 11:30N 37°33' E 025°21'4 7.9
2018-Aug-05 11:00N 37°31' E 025°17'3 5.6
2018-Aug-05 10:30N 37°31' E 025°13'5 9.6
2018-Aug-05 10:00N 37°31' E 025°07'8 8.7
2018-Aug-05 09:05N 37°32' E 024°58'1 8.4
2018-Aug-05 09:00N 37°32' E 024°57'3 6.2
2018-Aug-05 08:29N 37°33' E 024°53'4 7.5
2018-Aug-05 08:00N 37°33' E 024°48'52 5.1
2018-Aug-04 21:54N 37°39' E 023°43'3 5.4
2018-Aug-04 21:22N 37°41' E 023°41'2 5.6
2018-Aug-04 21:01N 37°43' E 023°40'3 5.7
2018-Aug-04 20:30N 37°46' E 023°39'3 5.7
2018-Aug-04 20:01N 37°48' E 023°37'4 8.8
2018-Aug-04 19:30N 37°53' E 023°37'4 7.8
2018-Aug-04 19:00N 37°56' E 023°38'0 0.8
2018-Aug-04 18:28N 37°56' E 023°38'0 0.0
2018-Aug-04 17:58N 37°56' E 023°38'0 0.0
2018-Aug-04 17:16N 37°56' E 023°38'0 0.0
2018-Aug-04 16:56N 37°56' E 023°38'0 0.0
2018-Aug-04 16:28N 37°56' E 023°38'0 0.0
2018-Aug-04 15:58N 37°56' E 023°38'0 0.0
2018-Aug-04 15:26N 37°56' E 023°38'0 0.0
2018-Aug-04 14:58N 37°56' E 023°38'0 0.0
2018-Aug-04 14:28N 37°56' E 023°38'0 0.0
2018-Aug-04 13:58N 37°56' E 023°38'0 0.0
2018-Aug-04 13:28N 37°56' E 023°38'0 0.0
2018-Aug-04 12:58N 37°56' E 023°38'0 0.0
2018-Aug-04 12:28N 37°56' E 023°38'0 0.0
2018-Aug-04 11:58N 37°56' E 023°38'0 0.0
2018-Aug-04 11:29N 37°56' E 023°38'0 0.0
2018-Aug-04 10:59N 37°56' E 023°38'0 0.0
2018-Aug-04 10:29N 37°56' E 023°38'0 0.0
2018-Aug-04 09:59N 37°56' E 023°38'0 0.0
2018-Aug-04 09:29N 37°56' E 023°38'0 0.0
2018-Aug-04 08:59N 37°56' E 023°38'0 0.0
2018-Aug-04 08:29N 37°56' E 023°38'0 0.0
2018-Aug-04 07:59N 37°56' E 023°38'0 0.0
2018-Aug-04 07:29N 37°56' E 023°38'0 0.0
2018-Aug-04 06:59N 37°56' E 023°38'0 0.0
2018-Aug-04 06:29N 37°56' E 023°38'0 0.0
2018-Aug-04 05:59N 37°56' E 023°38'0 0.0
2018-Aug-04 05:29N 37°56' E 023°38'0 0.0
2018-Aug-04 04:59N 37°56' E 023°38'0 0.0
2018-Aug-04 04:29N 37°56' E 023°38'0 0.0
2018-Aug-04 03:56N 37°56' E 023°38'0 0.5
2018-Aug-04 03:30N 37°56' E 023°38'2 3.7
2018-Aug-04 03:00N 37°55' E 023°37'4 7.3
2018-Aug-04 02:30N 37°51' E 023°39'3 6.7
2018-Aug-04 02:00N 37°48' E 023°41'4 7.5
2018-Aug-04 01:30N 37°45' E 023°43'6 7.2
2018-Aug-04 00:36N 37°39' E 023°47'59 7.7
2018-Aug-03 16:55N 37°10' E 024°52'3 7.7
2018-Aug-03 16:30N 37°09' E 024°56'4 8.2
2018-Aug-03 16:00N 37°08' E 025°00'4 7.9
2018-Aug-03 15:30N 37°07' E 025°05'3 5.5
2018-Aug-03 15:00N 37°05' E 025°08'0 0.0
2018-Aug-03 07:25N 37°05' E 025°08'3 6.3
2018-Aug-03 07:00N 37°08' E 025°08'4 8.4
2018-Aug-03 06:30N 37°11' E 025°11'3 6.9
2018-Aug-03 06:00N 37°14' E 025°13'3 6.5
2018-Aug-03 05:30N 37°17' E 025°16'3 5.2
2018-Aug-03 05:01N 37°18' E 025°18'3 6.9
2018-Aug-03 04:30N 37°15' E 025°18'4 7.8
2018-Aug-03 04:00N 37°11' E 025°19'4 7.5
2018-Aug-03 03:30N 37°07' E 025°19'4 7.7
2018-Aug-03 03:00N 37°04' E 025°18'4 7.6
2018-Aug-03 02:30N 36°60' E 025°18'  
Track history (hours):
 
Tides and Currents Weather Stations Pressure Air Temp Water Temp Dewpoint Dewpoint Depression Visibility Wind Speed Wind Dir Waves Ship Positions

Star Flyer

Last reported at 2018-Aug-12 22:47 UTC. Time now 2018-Aug-14 07:05 UTC.
Position N 37°17' E 025°53'.

Length 112 m; draft 5.9 m.

Type: Ship. MMSI: 248785000.

Date/timePositionNaut miles runAvg speedWind from/ knotsBaromVisibWave heightAir tempDewpointWater temp
2018-Aug-12 22:47N 37°17' E 025°53'2 6.5
2018-Aug-12 22:30N 37°16' E 025°51'3 6.6
2018-Aug-12 22:01N 37°16' E 025°46'2 4.1
2018-Aug-12 21:30N 37°15' E 025°44'2 3.5
2018-Aug-12 21:01N 37°15' E 025°42'5 4.5
2018-Aug-12 19:51N 37°15' E 025°35'2 5.3
2018-Aug-12 19:29N 37°15' E 025°33'3 5.4
2018-Aug-12 19:01N 37°14' E 025°30'2 4.9
2018-Aug-12 18:31N 37°14' E 025°27'2 4.9
2018-Aug-12 18:00N 37°13' E 025°24'2 3.4
2018-Aug-12 17:30N 37°13' E 025°22'2 4.0
2018-Aug-12 17:00N 37°12' E 025°19'2 4.6
2018-Aug-12 16:30N 37°13' E 025°16'2 4.7
2018-Aug-12 16:00N 37°12' E 025°14'2 3.1
2018-Aug-12 15:30N 37°11' E 025°12'3 5.4
2018-Aug-12 14:55N 37°09' E 025°09'2 4.3
2018-Aug-12 14:30N 37°08' E 025°07'3 4.8
2018-Aug-12 13:58N 37°06' E 025°07'1 1.0
2018-Aug-12 13:03N 37°05' E 025°08'0 0.0
2018-Aug-12 12:49N 37°05' E 025°08'0 0.0
2018-Aug-12 12:10N 37°05' E 025°08'0 0.1
2018-Aug-12 11:57N 37°05' E 025°08'0 0.0
2018-Aug-12 10:09N 37°05' E 025°08'0 0.0
2018-Aug-12 09:51N 37°05' E 025°08'0 0.0
2018-Aug-12 09:26N 37°05' E 025°08'0 0.0
2018-Aug-12 08:38N 37°05' E 025°08'0 0.0
2018-Aug-12 07:52N 37°05' E 025°08'0 0.1
2018-Aug-12 07:10N 37°05' E 025°08'0 1.6
2018-Aug-12 07:00N 37°05' E 025°08'3 6.7
2018-Aug-12 06:30N 37°07' E 025°05'3 5.4
2018-Aug-12 06:00N 37°07' E 025°02'2 4.6
2018-Aug-12 05:29N 37°06' E 024°59'3 7.1
2018-Aug-12 05:00N 37°08' E 024°56'3 6.1
2018-Aug-12 04:30N 37°10' E 024°53'62 6.7
2018-Aug-11 19:14N 37°39' E 023°44'2 5.3
2018-Aug-11 18:49N 37°41' E 023°42'2 7.8
2018-Aug-11 18:30N 37°43' E 023°41'4 8.8
2018-Aug-11 18:00N 37°47' E 023°38'4 8.5
2018-Aug-11 17:30N 37°51' E 023°36'5 9.5
2018-Aug-11 17:00N 37°56' E 023°36'1 2.6
2018-Aug-11 16:27N 37°56' E 023°38'0 0.0
2018-Aug-11 15:58N 37°56' E 023°38'0 0.0
2018-Aug-11 15:27N 37°56' E 023°38'0 0.0
2018-Aug-11 14:57N 37°56' E 023°38'0 0.0
2018-Aug-11 14:27N 37°56' E 023°38'0 0.0
2018-Aug-11 13:58N 37°56' E 023°38'0 0.0
2018-Aug-11 13:28N 37°56' E 023°38'0 0.0
2018-Aug-11 12:59N 37°56' E 023°38'0 0.0
2018-Aug-11 12:29N 37°56' E 023°38'0 0.0
2018-Aug-11 11:59N 37°56' E 023°38'0 0.0
2018-Aug-11 11:28N 37°56' E 023°38'0 0.0
2018-Aug-11 10:58N 37°56' E 023°38'0 0.0
2018-Aug-11 10:28N 37°56' E 023°38'0 0.0
2018-Aug-11 09:59N 37°56' E 023°38'0 0.0
2018-Aug-11 09:28N 37°56' E 023°38'0 0.0
2018-Aug-11 08:59N 37°56' E 023°38'0 0.0
2018-Aug-11 08:29N 37°56' E 023°38'0 0.0
2018-Aug-11 07:58N 37°56' E 023°38'0 0.0
2018-Aug-11 07:29N 37°56' E 023°38'0 0.0
2018-Aug-11 06:58N 37°56' E 023°38'0 0.0
2018-Aug-11 06:28N 37°56' E 023°38'0 0.0
2018-Aug-11 05:58N 37°56' E 023°38'0 0.0
2018-Aug-11 05:28N 37°56' E 023°38'0 0.0
2018-Aug-11 04:58N 37°56' E 023°38'0 0.0
2018-Aug-11 04:25N 37°56' E 023°38'0 0.0
2018-Aug-11 03:59N 37°56' E 023°38'0 0.4
2018-Aug-11 03:30N 37°56' E 023°38'2 3.8
2018-Aug-11 03:00N 37°55' E 023°37'3 6.6
2018-Aug-11 02:30N 37°52' E 023°39'3 6.2
2018-Aug-11 02:01N 37°49' E 023°40'3 5.9
2018-Aug-11 01:30N 37°46' E 023°42'25 6.2
2018-Aug-10 21:27N 37°21' E 023°37'54 2.3
2018-Aug-09 21:37N 37°19' E 024°45'1 7.2
2018-Aug-09 21:30N 37°19' E 024°46'4 7.8
2018-Aug-09 21:01N 37°20' E 024°51'611.2
2018-Aug-09 20:30N 37°22' E 024°58'4 8.6
2018-Aug-09 20:00N 37°26' E 024°60'3 5.3
2018-Aug-09 19:30N 37°26' E 024°57'0 0.0
2018-Aug-09 18:42N 37°26' E 024°57'0 0.0
2018-Aug-09 18:24N 37°26' E 024°57'0 0.0
2018-Aug-09 18:00N 37°26' E 024°57'0 0.0
2018-Aug-09 17:18N 37°26' E 024°57'0 0.0
2018-Aug-09 16:54N 37°26' E 024°57'0 0.0
2018-Aug-09 15:11N 37°26' E 024°57'0 0.0
2018-Aug-09 14:35N 37°26' E 024°57'0 0.0
2018-Aug-09 14:30N 37°26' E 024°57'0 0.0
2018-Aug-09 13:18N 37°26' E 024°57'0 0.0
2018-Aug-09 12:53N 37°26' E 024°57'0 0.0
2018-Aug-09 12:30N 37°26' E 024°57'0 0.0
2018-Aug-09 11:48N 37°26' E 024°57'0 0.0
2018-Aug-09 11:24N 37°26' E 024°57'0 0.0
2018-Aug-09 10:36N 37°26' E 024°57'0 0.0
2018-Aug-09 09:36N 37°26' E 024°57'0 0.0
2018-Aug-09 09:12N 37°26' E 024°57'0 0.0
2018-Aug-09 09:00N 37°26' E 024°57'0 0.0
2018-Aug-09 08:06N 37°26' E 024°57'0 0.0
2018-Aug-09 08:00N 37°26' E 024°57'0 0.0
2018-Aug-09 05:51N 37°26' E 024°57'0 0.9
2018-Aug-09 05:29N 37°26' E 024°57'2 4.3
2018-Aug-09 04:59N 37°26' E 024°60'5 4.3
2018-Aug-09 03:42N 37°23' E 025°05'1 3.7
2018-Aug-09 03:29N 37°23' E 025°06'2 4.1
2018-Aug-09 02:59N 37°21' E 025°08'2 4.1
2018-Aug-09 02:30N 37°20' E 025°09'2 4.4
2018-Aug-09 02:00N 37°18' E 025°11'2 4.2
2018-Aug-09 01:30N 37°16' E 025°13'2 4.5
2018-Aug-09 01:00N 37°15' E 025°15'2 4.4
2018-Aug-09 00:30N 37°13' E 025°16'3 5.5
2018-Aug-09 00:00N 37°11' E 025°19'3 5.3
2018-Aug-08 23:30N 37°08' E 025°19'3 5.9
2018-Aug-08 23:00N 37°05' E 025°18'3 5.7
2018-Aug-08 22:30N 37°03' E 025°18'3 5.7
2018-Aug-08 22:00N 36°60' E 025°19'  
2018-Aug-05 15:15N 37°40' E 025°50'4 5.7
2018-Aug-05 14:31N 37°38' E 025°45'0 6.7
2018-Aug-05 14:27N 37°38' E 025°45'6 6.2
2018-Aug-05 13:31N 37°36' E 025°38'3 6.5
2018-Aug-05 12:59N 37°35' E 025°34'3 6.5
2018-Aug-05 12:31N 37°35' E 025°30'3 6.5
2018-Aug-05 12:00N 37°34' E 025°26'4 7.3
2018-Aug-05 11:30N 37°33' E 025°21'4 7.9
2018-Aug-05 11:00N 37°31' E 025°17'3 5.6
2018-Aug-05 10:30N 37°31' E 025°13'5 9.6
2018-Aug-05 10:00N 37°31' E 025°07'8 8.7
2018-Aug-05 09:05N 37°32' E 024°58'1 8.4
2018-Aug-05 09:00N 37°32' E 024°57'3 6.2
2018-Aug-05 08:29N 37°33' E 024°53'4 7.5
2018-Aug-05 08:00N 37°33' E 024°48'52 5.1
2018-Aug-04 21:54N 37°39' E 023°43'3 5.4
2018-Aug-04 21:22N 37°41' E 023°41'2 5.6
2018-Aug-04 21:01N 37°43' E 023°40'3 5.7
2018-Aug-04 20:30N 37°46' E 023°39'3 5.7
2018-Aug-04 20:01N 37°48' E 023°37'4 8.8
2018-Aug-04 19:30N 37°53' E 023°37'4 7.8
2018-Aug-04 19:00N 37°56' E 023°38'0 0.8
2018-Aug-04 18:28N 37°56' E 023°38'0 0.0
2018-Aug-04 17:58N 37°56' E 023°38'0 0.0
2018-Aug-04 17:16N 37°56' E 023°38'0 0.0
2018-Aug-04 16:56N 37°56' E 023°38'0 0.0
2018-Aug-04 16:28N 37°56' E 023°38'0 0.0
2018-Aug-04 15:58N 37°56' E 023°38'0 0.0
2018-Aug-04 15:26N 37°56' E 023°38'0 0.0
2018-Aug-04 14:58N 37°56' E 023°38'0 0.0
2018-Aug-04 14:28N 37°56' E 023°38'0 0.0
2018-Aug-04 13:58N 37°56' E 023°38'0 0.0
2018-Aug-04 13:28N 37°56' E 023°38'0 0.0
2018-Aug-04 12:58N 37°56' E 023°38'0 0.0
2018-Aug-04 12:28N 37°56' E 023°38'0 0.0
2018-Aug-04 11:58N 37°56' E 023°38'0 0.0
2018-Aug-04 11:29N 37°56' E 023°38'0 0.0
2018-Aug-04 10:59N 37°56' E 023°38'0 0.0
2018-Aug-04 10:29N 37°56' E 023°38'0 0.0
2018-Aug-04 09:59N 37°56' E 023°38'0 0.0
2018-Aug-04 09:29N 37°56' E 023°38'0 0.0
2018-Aug-04 08:59N 37°56' E 023°38'0 0.0
2018-Aug-04 08:29N 37°56' E 023°38'0 0.0
2018-Aug-04 07:59N 37°56' E 023°38'0 0.0
2018-Aug-04 07:29N 37°56' E 023°38'0 0.0
2018-Aug-04 06:59N 37°56' E 023°38'0 0.0
2018-Aug-04 06:29N 37°56' E 023°38'0 0.0
2018-Aug-04 05:59N 37°56' E 023°38'0 0.0
2018-Aug-04 05:29N 37°56' E 023°38'0 0.0
2018-Aug-04 04:59N 37°56' E 023°38'0 0.0
2018-Aug-04 04:29N 37°56' E 023°38'0 0.0
2018-Aug-04 03:56N 37°56' E 023°38'0 0.5
2018-Aug-04 03:30N 37°56' E 023°38'2 3.7
2018-Aug-04 03:00N 37°55' E 023°37'4 7.3
2018-Aug-04 02:30N 37°51' E 023°39'3 6.7
2018-Aug-04 02:00N 37°48' E 023°41'4 7.5
2018-Aug-04 01:30N 37°45' E 023°43'6 7.2
2018-Aug-04 00:36N 37°39' E 023°47'59 7.7
2018-Aug-03 16:55N 37°10' E 024°52'3 7.7
2018-Aug-03 16:30N 37°09' E 024°56'4 8.2
2018-Aug-03 16:00N 37°08' E 025°00'4 7.9
2018-Aug-03 15:30N 37°07' E 025°05'3 5.5
2018-Aug-03 15:00N 37°05' E 025°08'0 0.0
2018-Aug-03 07:25N 37°05' E 025°08'3 6.3
2018-Aug-03 07:00N 37°08' E 025°08'4 8.4
2018-Aug-03 06:30N 37°11' E 025°11'3 6.9
2018-Aug-03 06:00N 37°14' E 025°13'3 6.5
2018-Aug-03 05:30N 37°17' E 025°16'3 5.2
2018-Aug-03 05:01N 37°18' E 025°18'3 6.9
2018-Aug-03 04:30N 37°15' E 025°18'4 7.8
2018-Aug-03 04:00N 37°11' E 025°19'4 7.5
2018-Aug-03 03:30N 37°07' E 025°19'4 7.7
2018-Aug-03 03:00N 37°04' E 025°18'4 7.6
2018-Aug-03 02:30N 36°60' E 025°18'  

Dump ship's entire track history